createdAt,value
2017-09-04T00:00:11.389Z,1005.8
2017-09-04T00:01:12.760Z,1005.8
2017-09-04T00:02:14.137Z,1005.8
2017-09-04T00:03:15.498Z,1005.8
2017-09-04T00:04:16.994Z,1005.8
2017-09-04T00:05:18.346Z,1005.8
2017-09-04T00:06:19.716Z,1005.8
2017-09-04T00:07:21.089Z,1005.7
2017-09-04T00:08:22.644Z,1005.8
2017-09-04T00:09:24.023Z,1005.8
2017-09-04T00:10:25.395Z,1005.8
2017-09-04T00:11:26.779Z,1005.8
2017-09-04T00:12:28.150Z,1005.8
2017-09-04T00:13:29.671Z,1005.8
2017-09-04T00:14:31.048Z,1005.8
2017-09-04T00:15:32.578Z,1005.8
2017-09-04T00:16:34.019Z,1005.8
2017-09-04T00:17:35.385Z,1005.8
2017-09-04T00:18:37.124Z,1005.8
2017-09-04T00:19:38.526Z,1005.8
2017-09-04T00:21:20.877Z,1005.8
2017-09-04T00:22:22.249Z,1005.8
2017-09-04T00:23:23.618Z,1005.9
2017-09-04T00:24:24.998Z,1005.9
2017-09-04T00:25:26.359Z,1005.9
2017-09-04T00:26:27.740Z,1005.8
2017-09-04T00:27:29.108Z,1005.8
2017-09-04T00:28:30.513Z,1005.8
2017-09-04T00:29:31.916Z,1005.8
2017-09-04T00:30:33.254Z,1005.8
2017-09-04T00:31:34.627Z,1005.8
2017-09-04T00:32:36.000Z,1005.8
2017-09-04T00:33:37.396Z,1005.9
2017-09-04T00:34:38.774Z,1005.8
2017-09-04T00:35:40.153Z,1005.8
2017-09-04T00:36:41.668Z,1005.8
2017-09-04T00:38:23.024Z,1005.8
2017-09-04T00:39:24.391Z,1005.8
2017-09-04T00:40:47.400Z,1005.8
2017-09-04T00:41:48.776Z,1005.7
2017-09-04T00:42:50.142Z,1005.8
2017-09-04T00:43:51.506Z,1005.8
2017-09-04T00:44:52.887Z,1005.8
2017-09-04T00:45:54.348Z,1005.8
2017-09-04T00:46:55.709Z,1005.8
2017-09-04T00:47:57.104Z,1005.8
2017-09-04T00:48:58.538Z,1005.8
2017-09-04T00:49:59.907Z,1005.8
2017-09-04T00:51:01.332Z,1005.8
2017-09-04T00:52:02.685Z,1005.8
2017-09-04T00:53:04.066Z,1005.9
2017-09-04T00:54:05.452Z,1005.9
2017-09-04T00:55:06.824Z,1005.9
2017-09-04T00:56:08.227Z,1005.8
2017-09-04T00:57:09.602Z,1005.8
2017-09-04T00:58:10.978Z,1005.9
2017-09-04T00:59:12.357Z,1005.8
2017-09-04T01:00:13.730Z,1005.9
2017-09-04T01:01:15.106Z,1005.9
2017-09-04T01:02:16.520Z,1005.8
2017-09-04T01:03:17.877Z,1005.9
2017-09-04T01:04:19.251Z,1005.8
2017-09-04T01:05:20.615Z,1005.8
2017-09-04T01:06:22.024Z,1005.8
2017-09-04T01:07:23.395Z,1005.9
2017-09-04T01:08:24.768Z,1005.8
2017-09-04T01:09:26.138Z,1005.8
2017-09-04T01:10:27.508Z,1005.8
2017-09-04T01:11:28.877Z,1005.9
2017-09-04T01:12:30.281Z,1005.8
2017-09-04T01:13:31.800Z,1005.8
2017-09-04T01:14:33.166Z,1005.8
2017-09-04T01:15:34.536Z,1005.8
2017-09-04T01:16:35.957Z,1005.8
2017-09-04T01:17:37.341Z,1005.8
2017-09-04T01:18:38.760Z,1005.8
2017-09-04T01:19:40.131Z,1005.8
2017-09-04T01:20:41.606Z,1005.8
2017-09-04T01:21:42.988Z,1005.8
2017-09-04T01:22:44.361Z,1005.8
2017-09-04T01:23:45.737Z,1005.8
2017-09-04T01:24:47.196Z,1005.8
2017-09-04T01:26:29.568Z,1005.8
2017-09-04T01:27:30.941Z,1005.8
2017-09-04T01:28:32.311Z,1005.9
2017-09-04T01:29:33.679Z,1005.8
2017-09-04T01:30:35.048Z,1005.8
2017-09-04T01:31:36.421Z,1005.8
2017-09-04T01:32:37.792Z,1005.8
2017-09-04T01:33:39.162Z,1005.8
2017-09-04T01:34:40.530Z,1005.7
2017-09-04T01:35:41.922Z,1005.8
2017-09-04T01:36:43.270Z,1005.8
2017-09-04T01:37:44.637Z,1005.8
2017-09-04T01:38:46.194Z,1005.8
2017-09-04T01:39:47.610Z,1005.8
2017-09-04T01:40:49.012Z,1005.7
2017-09-04T01:41:50.385Z,1005.7
2017-09-04T01:42:51.778Z,1005.8
2017-09-04T01:43:53.158Z,1005.7
2017-09-04T01:44:54.539Z,1005.7
2017-09-04T01:45:55.985Z,1005.7
2017-09-04T01:46:57.370Z,1005.7
2017-09-04T01:47:58.748Z,1005.7
2017-09-04T01:49:00.162Z,1005.7
2017-09-04T01:50:01.729Z,1005.7
2017-09-04T01:51:03.106Z,1005.7
2017-09-04T01:52:04.503Z,1005.7
2017-09-04T01:53:05.899Z,1005.7
2017-09-04T01:54:07.375Z,1005.7
2017-09-04T01:55:08.740Z,1005.7
2017-09-04T01:56:10.121Z,1005.7
2017-09-04T01:57:11.643Z,1005.7
2017-09-04T01:58:13.014Z,1005.7
2017-09-04T01:59:14.421Z,1005.7
2017-09-04T02:00:15.804Z,1005.7
2017-09-04T02:01:17.187Z,1005.7
2017-09-04T02:02:18.568Z,1005.6
2017-09-04T02:03:20.539Z,1005.7
2017-09-04T02:04:22.136Z,1005.7
2017-09-04T02:05:23.564Z,1005.7
2017-09-04T02:06:24.971Z,1005.7
2017-09-04T02:07:26.438Z,1005.7
2017-09-04T02:08:27.837Z,1005.7
2017-09-04T02:09:29.251Z,1005.6
2017-09-04T02:10:30.706Z,1005.7
2017-09-04T02:11:32.145Z,1005.7
2017-09-04T02:12:33.521Z,1005.7
2017-09-04T02:13:34.985Z,1005.7
2017-09-04T02:14:36.389Z,1005.6
2017-09-04T02:15:37.765Z,1005.7
2017-09-04T02:16:39.157Z,1005.7
2017-09-04T02:17:40.713Z,1005.7
2017-09-04T02:18:42.128Z,1005.7
2017-09-04T02:19:43.520Z,1005.7
2017-09-04T02:20:44.889Z,1005.7
2017-09-04T02:21:46.331Z,1005.7
2017-09-04T02:22:47.721Z,1005.7
2017-09-04T02:23:49.095Z,1005.6
2017-09-04T02:24:50.474Z,1005.6
2017-09-04T02:25:51.854Z,1005.6
2017-09-04T02:26:53.330Z,1005.6
2017-09-04T02:27:54.714Z,1005.6
2017-09-04T02:28:56.216Z,1005.6
2017-09-04T02:29:57.600Z,1005.6
2017-09-04T02:30:59.075Z,1005.6
2017-09-04T02:32:00.577Z,1005.6
2017-09-04T02:33:02.022Z,1005.6
2017-09-04T02:34:03.391Z,1005.6
2017-09-04T02:35:04.800Z,1005.6
2017-09-04T02:36:06.193Z,1005.6
2017-09-04T02:37:07.569Z,1005.6
2017-09-04T02:38:08.964Z,1005.6
2017-09-04T02:39:10.370Z,1005.6
2017-09-04T02:40:11.762Z,1005.6
2017-09-04T02:41:13.136Z,1005.6
2017-09-04T02:42:14.506Z,1005.6
2017-09-04T02:43:15.904Z,1005.6
2017-09-04T02:44:17.310Z,1005.6
2017-09-04T02:45:18.709Z,1005.6
2017-09-04T02:46:20.080Z,1005.6
2017-09-04T02:47:21.463Z,1005.6
2017-09-04T02:48:22.862Z,1005.6
2017-09-04T02:49:24.286Z,1005.6
2017-09-04T02:50:25.728Z,1005.6
2017-09-04T02:51:27.115Z,1005.6
2017-09-04T02:52:28.483Z,1005.6
2017-09-04T02:53:29.903Z,1005.6
2017-09-04T02:54:31.293Z,1005.5
2017-09-04T02:55:32.668Z,1005.5
2017-09-04T02:56:34.072Z,1005.6
2017-09-04T02:57:35.453Z,1005.5
2017-09-04T02:58:36.891Z,1005.6
2017-09-04T02:59:38.265Z,1005.5
2017-09-04T03:00:39.680Z,1005.6
2017-09-04T03:01:41.105Z,1005.5
2017-09-04T03:02:42.495Z,1005.5
2017-09-04T03:03:43.953Z,1005.5
2017-09-04T03:04:45.343Z,1005.5
2017-09-04T03:05:46.792Z,1005.5
2017-09-04T03:06:48.225Z,1005.4
2017-09-04T03:07:49.595Z,1005.5
2017-09-04T03:08:51.003Z,1005.5
2017-09-04T03:09:52.376Z,1005.5
2017-09-04T03:10:53.885Z,1005.4
2017-09-04T03:11:55.263Z,1005.4
2017-09-04T03:13:37.674Z,1005.4
2017-09-04T03:14:39.028Z,1005.4
2017-09-04T03:15:40.405Z,1005.4
2017-09-04T03:16:41.805Z,1005.4
2017-09-04T03:17:43.170Z,1005.4
2017-09-04T03:18:44.542Z,1005.4
2017-09-04T03:19:45.921Z,1005.4
2017-09-04T03:20:47.285Z,1005.4
2017-09-04T03:21:48.660Z,1005.4
2017-09-04T03:22:50.061Z,1005.4
2017-09-04T03:23:51.528Z,1005.4
2017-09-04T03:24:52.859Z,1005.4
2017-09-04T03:25:54.227Z,1005.4
2017-09-04T03:26:55.629Z,1005.4
2017-09-04T03:27:56.997Z,1005.4
2017-09-04T03:29:39.358Z,1005.4
2017-09-04T03:30:40.730Z,1005.4
2017-09-04T03:31:42.099Z,1005.4
2017-09-04T03:32:43.469Z,1005.4
2017-09-04T03:33:44.838Z,1005.4
2017-09-04T03:34:46.207Z,1005.5
2017-09-04T03:35:47.576Z,1005.4
2017-09-04T03:36:48.970Z,1005.5
2017-09-04T03:37:50.368Z,1005.4
2017-09-04T03:38:51.733Z,1005.5
2017-09-04T03:39:53.102Z,1005.4
2017-09-04T03:40:54.477Z,1005.5
2017-09-04T03:41:55.850Z,1005.5
2017-09-04T03:42:57.224Z,1005.5
2017-09-04T03:43:58.610Z,1005.5
2017-09-04T03:44:59.976Z,1005.5
2017-09-04T03:46:01.349Z,1005.5
2017-09-04T03:47:02.721Z,1005.5
2017-09-04T03:48:04.090Z,1005.6
2017-09-04T03:49:05.462Z,1005.6
2017-09-04T03:50:06.847Z,1005.6
2017-09-04T03:51:08.225Z,1005.6
2017-09-04T03:52:09.598Z,1005.6
2017-09-04T03:53:10.998Z,1005.5
2017-09-04T03:54:12.398Z,1005.6
2017-09-04T03:55:13.776Z,1005.6
2017-09-04T03:56:15.143Z,1005.6
2017-09-04T03:57:16.620Z,1005.6
2017-09-04T03:58:18.020Z,1005.6
2017-09-04T03:59:19.420Z,1005.5
2017-09-04T04:00:20.824Z,1005.5
2017-09-04T04:01:22.177Z,1005.5
2017-09-04T04:02:23.558Z,1005.5
2017-09-04T04:03:24.933Z,1005.6
2017-09-04T04:04:26.312Z,1005.5
2017-09-04T04:05:27.684Z,1005.5
2017-09-04T04:06:29.052Z,1005.5
2017-09-04T04:07:30.422Z,1005.5
2017-09-04T04:08:31.793Z,1005.6
2017-09-04T04:09:33.171Z,1005.5
2017-09-04T04:10:34.647Z,1005.5
2017-09-04T04:11:36.093Z,1005.5
2017-09-04T04:12:37.462Z,1005.5
2017-09-04T04:13:38.847Z,1005.5
2017-09-04T04:14:40.279Z,1005.5
2017-09-04T04:15:41.707Z,1005.5
2017-09-04T04:16:43.079Z,1005.5
2017-09-04T04:17:44.466Z,1005.5
2017-09-04T04:18:45.875Z,1005.5
2017-09-04T04:19:47.410Z,1005.5
2017-09-04T04:21:29.725Z,1005.6
2017-09-04T04:22:31.094Z,1005.6
2017-09-04T04:23:32.460Z,1005.6
2017-09-04T04:24:33.841Z,1005.6
2017-09-04T04:25:35.212Z,1005.6
2017-09-04T04:26:36.599Z,1005.6
2017-09-04T04:27:37.975Z,1005.6
2017-09-04T04:28:39.351Z,1005.7
2017-09-04T04:29:40.725Z,1005.7
2017-09-04T04:30:42.203Z,1005.7
2017-09-04T04:31:43.593Z,1005.6
2017-09-04T04:32:44.957Z,1005.7
2017-09-04T04:33:46.349Z,1005.7
2017-09-04T04:34:47.712Z,1005.7
2017-09-04T04:35:49.085Z,1005.6
2017-09-04T04:37:31.443Z,1005.6
2017-09-04T04:38:32.814Z,1005.6
2017-09-04T04:39:34.185Z,1005.6
2017-09-04T04:40:35.662Z,1005.6
2017-09-04T04:41:37.040Z,1005.6
2017-09-04T04:42:38.414Z,1005.7
2017-09-04T04:43:39.813Z,1005.6
2017-09-04T04:44:41.197Z,1005.6
2017-09-04T04:45:42.570Z,1005.7
2017-09-04T04:46:43.959Z,1005.7
2017-09-04T04:47:45.398Z,1005.7
2017-09-04T04:48:47.049Z,1005.7
2017-09-04T04:49:48.448Z,1005.7
2017-09-04T04:50:49.840Z,1005.7
2017-09-04T04:51:51.220Z,1005.7
2017-09-04T04:53:33.578Z,1005.7
2017-09-04T04:54:34.951Z,1005.7
2017-09-04T04:55:36.321Z,1005.7
2017-09-04T04:56:37.696Z,1005.8
2017-09-04T04:57:39.071Z,1005.8
2017-09-04T04:58:40.444Z,1005.8
2017-09-04T04:59:41.821Z,1005.8
2017-09-04T05:00:43.210Z,1005.8
2017-09-04T05:01:44.583Z,1005.8
2017-09-04T05:02:45.975Z,1005.8
2017-09-04T05:03:47.349Z,1005.8
2017-09-04T05:04:48.733Z,1005.9
2017-09-04T05:05:50.104Z,1005.9
2017-09-04T05:06:51.479Z,1005.9
2017-09-04T05:07:52.865Z,1005.9
2017-09-04T05:08:54.244Z,1005.9
2017-09-04T05:10:35.613Z,1005.9
2017-09-04T05:11:37.022Z,1006.0
2017-09-04T05:12:38.385Z,1006.0
2017-09-04T05:13:39.762Z,1005.9
2017-09-04T05:14:41.166Z,1005.9
2017-09-04T05:15:42.540Z,1006.0
2017-09-04T05:16:43.922Z,1005.9
2017-09-04T05:17:45.292Z,1005.9
2017-09-04T05:18:46.666Z,1005.9
2017-09-04T05:19:48.039Z,1005.9
2017-09-04T05:20:49.413Z,1006.0
2017-09-04T05:21:50.785Z,1005.9
2017-09-04T05:22:52.172Z,1005.9
2017-09-04T05:23:53.559Z,1006.0
2017-09-04T05:24:54.957Z,1006.0
2017-09-04T05:25:56.560Z,1006.0
2017-09-04T05:26:57.980Z,1006.0
2017-09-04T05:27:59.352Z,1006.0
2017-09-04T05:29:00.735Z,1006.0
2017-09-04T05:30:02.116Z,1006.0
2017-09-04T05:31:03.606Z,1006.0
2017-09-04T05:32:05.051Z,1006.0
2017-09-04T05:33:06.512Z,1006.0
2017-09-04T05:34:07.982Z,1006.0
2017-09-04T05:35:09.457Z,1006.0
2017-09-04T05:36:10.859Z,1006.0
2017-09-04T05:37:12.265Z,1006.0
2017-09-04T05:38:14.172Z,1006.1
2017-09-04T05:39:15.795Z,1006.0
2017-09-04T05:40:17.236Z,1006.0
2017-09-04T05:41:18.613Z,1006.0
2017-09-04T05:42:19.995Z,1006.0
2017-09-04T05:43:21.397Z,1006.1
2017-09-04T05:44:22.776Z,1006.1
2017-09-04T05:45:24.159Z,1006.1
2017-09-04T05:46:25.540Z,1006.1
2017-09-04T05:47:26.922Z,1006.0
2017-09-04T05:48:28.309Z,1006.0
2017-09-04T05:49:29.687Z,1006.0
2017-09-04T05:50:31.080Z,1006.0
2017-09-04T05:51:32.455Z,1006.1
2017-09-04T05:52:33.952Z,1006.1
2017-09-04T05:53:35.393Z,1006.2
2017-09-04T05:54:36.796Z,1006.1
2017-09-04T05:55:38.276Z,1006.1
2017-09-04T05:56:39.663Z,1006.2
2017-09-04T05:58:21.073Z,1006.2
2017-09-04T05:59:22.438Z,1006.3
2017-09-04T06:00:23.840Z,1006.2
2017-09-04T06:01:25.220Z,1006.3
2017-09-04T06:02:26.618Z,1006.3
2017-09-04T06:03:28.003Z,1006.2
2017-09-04T06:04:29.387Z,1006.3
2017-09-04T06:05:30.757Z,1006.3
2017-09-04T06:06:32.149Z,1006.3
2017-09-04T06:07:33.518Z,1006.3
2017-09-04T06:08:34.901Z,1006.3
2017-09-04T06:09:36.283Z,1006.3
2017-09-04T06:10:37.667Z,1006.4
2017-09-04T06:11:39.103Z,1006.3
2017-09-04T06:12:40.550Z,1006.3
2017-09-04T06:14:22.909Z,1006.4
2017-09-04T06:15:24.277Z,1006.4
2017-09-04T06:16:25.665Z,1006.4
2017-09-04T06:17:27.046Z,1006.4
2017-09-04T06:18:28.424Z,1006.3
2017-09-04T06:19:29.806Z,1006.3
2017-09-04T06:20:31.191Z,1006.3
2017-09-04T06:21:32.571Z,1006.4
2017-09-04T06:22:33.956Z,1006.3
2017-09-04T06:23:35.330Z,1006.4
2017-09-04T06:24:36.717Z,1006.3
2017-09-04T06:25:38.090Z,1006.3
2017-09-04T06:26:39.477Z,1006.3
2017-09-04T06:27:40.859Z,1006.4
2017-09-04T06:28:42.397Z,1006.4
2017-09-04T06:29:43.760Z,1006.4
2017-09-04T06:30:45.147Z,1006.4
2017-09-04T06:31:46.537Z,1006.4
2017-09-04T06:32:47.922Z,1006.4
2017-09-04T06:33:49.370Z,1006.4
2017-09-04T06:34:50.790Z,1006.4
2017-09-04T06:35:52.169Z,1006.4
2017-09-04T06:36:53.547Z,1006.4
2017-09-04T06:37:54.944Z,1006.4
2017-09-04T06:38:56.460Z,1006.5
2017-09-04T06:39:57.853Z,1006.5
2017-09-04T06:40:59.244Z,1006.5
2017-09-04T06:42:00.685Z,1006.5
2017-09-04T06:43:02.104Z,1006.4
2017-09-04T06:44:03.519Z,1006.5
2017-09-04T06:45:04.960Z,1006.5
2017-09-04T06:46:47.343Z,1006.5
2017-09-04T06:47:48.742Z,1006.4
2017-09-04T06:48:50.125Z,1006.5
2017-09-04T06:49:51.504Z,1006.5
2017-09-04T06:50:52.888Z,1006.5
2017-09-04T06:51:54.268Z,1006.6
2017-09-04T06:52:55.656Z,1006.5
2017-09-04T06:53:57.034Z,1006.5
2017-09-04T06:54:58.411Z,1006.5
2017-09-04T06:55:59.798Z,1006.5
2017-09-04T06:57:01.186Z,1006.6
2017-09-04T06:58:02.586Z,1006.6
2017-09-04T06:59:03.953Z,1006.6
2017-09-04T07:00:05.337Z,1006.7
2017-09-04T07:01:06.724Z,1006.7
2017-09-04T07:02:08.112Z,1006.8
2017-09-04T07:03:09.501Z,1006.8
2017-09-04T07:04:10.937Z,1006.8
2017-09-04T07:05:12.330Z,1006.8
2017-09-04T07:06:13.750Z,1006.8
2017-09-04T07:07:15.197Z,1006.9
2017-09-04T07:08:16.596Z,1007.0
2017-09-04T07:09:17.995Z,1007.1
2017-09-04T07:10:19.393Z,1007.2
2017-09-04T07:11:20.797Z,1007.3
2017-09-04T07:12:22.227Z,1007.5
2017-09-04T07:13:23.617Z,1007.8
2017-09-04T07:14:25.015Z,1007.9
2017-09-04T07:15:26.418Z,1007.8
2017-09-04T07:16:27.809Z,1007.7
2017-09-04T07:17:29.237Z,1007.5
2017-09-04T07:18:30.667Z,1007.4
2017-09-04T07:19:32.053Z,1007.3
2017-09-04T07:20:33.445Z,1007.3
2017-09-04T07:21:34.881Z,1007.3
2017-09-04T07:22:36.318Z,1007.3
2017-09-04T07:23:37.700Z,1007.2
2017-09-04T07:24:39.113Z,1007.3
2017-09-04T07:25:40.482Z,1007.3
2017-09-04T07:26:41.881Z,1007.3
2017-09-04T07:27:43.322Z,1007.3
2017-09-04T07:28:44.745Z,1007.3
2017-09-04T07:29:46.165Z,1007.4
2017-09-04T07:30:47.550Z,1007.4
2017-09-04T07:31:48.936Z,1007.4
2017-09-04T07:32:50.326Z,1007.4
2017-09-04T07:33:51.737Z,1007.4
2017-09-04T07:34:53.126Z,1007.4
2017-09-04T07:35:54.509Z,1007.4
2017-09-04T07:36:55.926Z,1007.4
2017-09-04T07:37:57.329Z,1007.4
2017-09-04T07:38:58.728Z,1007.4
2017-09-04T07:40:00.116Z,1007.4
2017-09-04T07:41:01.531Z,1007.4
2017-09-04T07:42:02.925Z,1007.4
2017-09-04T07:43:04.343Z,1007.4
2017-09-04T07:44:05.813Z,1007.4
2017-09-04T07:45:07.214Z,1007.5
2017-09-04T07:46:08.601Z,1007.5
2017-09-04T07:47:09.987Z,1007.5
2017-09-04T07:48:11.386Z,1007.5
2017-09-04T07:49:12.788Z,1007.5
2017-09-04T07:50:14.179Z,1007.7
2017-09-04T07:51:15.588Z,1007.7
2017-09-04T07:52:16.990Z,1007.8
2017-09-04T07:53:18.385Z,1007.9
2017-09-04T07:54:19.780Z,1007.9
2017-09-04T07:55:21.203Z,1008.0
2017-09-04T07:56:22.597Z,1008.0
2017-09-04T07:57:24.242Z,1008.0
2017-09-04T07:58:25.957Z,1008.0
2017-09-04T07:59:27.725Z,1008.0
2017-09-04T08:00:29.158Z,1008.0
2017-09-04T08:01:30.558Z,1008.0
2017-09-04T08:02:31.961Z,1007.9
2017-09-04T08:03:33.373Z,1008.1
2017-09-04T08:04:34.760Z,1008.1
2017-09-04T08:05:36.183Z,1008.1
2017-09-04T08:06:37.576Z,1008.1
2017-09-04T08:07:38.974Z,1008.0
2017-09-04T08:08:40.362Z,1008.1
2017-09-04T08:09:41.784Z,1008.0
2017-09-04T08:10:43.178Z,1007.9
2017-09-04T08:11:44.570Z,1007.9
2017-09-04T08:12:46.004Z,1007.9
2017-09-04T08:14:28.384Z,1007.8
2017-09-04T08:15:29.764Z,1007.8
2017-09-04T08:16:31.164Z,1007.8
2017-09-04T08:17:32.561Z,1007.8
2017-09-04T08:18:33.949Z,1007.9
2017-09-04T08:19:35.341Z,1007.7
2017-09-04T08:20:36.753Z,1007.5
2017-09-04T08:21:38.153Z,1007.5
2017-09-04T08:22:39.547Z,1007.5
2017-09-04T08:23:40.927Z,1007.5
2017-09-04T08:24:42.324Z,1007.5
2017-09-04T08:25:43.714Z,1007.4
2017-09-04T08:26:45.133Z,1007.5
2017-09-04T08:27:46.501Z,1007.4
2017-09-04T08:28:47.888Z,1007.4
2017-09-04T08:30:30.273Z,1007.4
2017-09-04T08:31:31.713Z,1007.4
2017-09-04T08:32:33.112Z,1007.4
2017-09-04T08:33:34.503Z,1007.4
2017-09-04T08:34:35.893Z,1007.4
2017-09-04T08:35:37.287Z,1007.4
2017-09-04T08:36:38.676Z,1007.4
2017-09-04T08:37:40.107Z,1007.4
2017-09-04T08:38:41.516Z,1007.4
2017-09-04T08:39:42.906Z,1007.4
2017-09-04T08:40:44.299Z,1007.4
2017-09-04T08:41:45.688Z,1007.4
2017-09-04T08:42:47.086Z,1007.4
2017-09-04T08:43:48.478Z,1007.4
2017-09-04T08:44:49.873Z,1007.4
2017-09-04T08:46:32.250Z,1007.4
2017-09-04T08:47:33.641Z,1007.4
2017-09-04T08:48:35.028Z,1007.4
2017-09-04T08:49:36.434Z,1007.4
2017-09-04T08:50:37.826Z,1007.5
2017-09-04T08:51:39.223Z,1007.4
2017-09-04T08:52:40.616Z,1007.4
2017-09-04T08:53:42.014Z,1007.5
2017-09-04T08:54:43.412Z,1007.5
2017-09-04T08:55:44.801Z,1007.5
2017-09-04T08:56:46.212Z,1007.5
2017-09-04T08:57:47.598Z,1007.6
2017-09-04T08:58:49.004Z,1008.2
2017-09-04T08:59:50.395Z,1008.7
2017-09-04T09:00:51.789Z,1008.7
2017-09-04T09:01:53.174Z,1008.8
2017-09-04T09:02:54.568Z,1008.7
2017-09-04T09:03:55.978Z,1008.7
2017-09-04T09:04:57.366Z,1008.7
2017-09-04T09:05:58.762Z,1008.7
2017-09-04T09:07:00.149Z,1008.7
2017-09-04T09:08:01.560Z,1008.7
2017-09-04T09:09:02.940Z,1008.7
2017-09-04T09:10:04.341Z,1008.6
2017-09-04T09:11:05.725Z,1008.6
2017-09-04T09:12:07.118Z,1008.5
2017-09-04T09:13:08.504Z,1008.5
2017-09-04T09:14:09.896Z,1008.4
2017-09-04T09:15:11.298Z,1008.4
2017-09-04T09:16:12.686Z,1008.3
2017-09-04T09:17:14.080Z,1008.3
2017-09-04T09:18:15.467Z,1008.3
2017-09-04T09:19:16.861Z,1008.2
2017-09-04T09:20:18.371Z,1008.2
2017-09-04T09:21:19.756Z,1008.2
2017-09-04T09:22:21.143Z,1008.2
2017-09-04T09:23:22.555Z,1008.2
2017-09-04T09:24:23.944Z,1008.1
2017-09-04T09:25:25.338Z,1008.2
2017-09-04T09:26:26.739Z,1008.2
2017-09-04T09:27:28.132Z,1008.1
2017-09-04T09:28:29.523Z,1008.1
2017-09-04T09:29:30.915Z,1008.1
2017-09-04T09:30:32.322Z,1008.1
2017-09-04T09:31:33.715Z,1008.1
2017-09-04T09:32:35.105Z,1008.1
2017-09-04T09:33:36.495Z,1008.1
2017-09-04T09:35:18.880Z,1008.1
2017-09-04T09:36:20.271Z,1008.1
2017-09-04T09:37:21.666Z,1008.1
2017-09-04T09:38:23.054Z,1008.2
2017-09-04T09:39:24.445Z,1008.1
2017-09-04T09:40:25.839Z,1008.1
2017-09-04T09:41:27.231Z,1008.2
2017-09-04T09:42:28.625Z,1008.1
2017-09-04T09:43:30.015Z,1008.2
2017-09-04T09:44:31.420Z,1008.1
2017-09-04T09:45:32.809Z,1008.1
2017-09-04T09:46:34.203Z,1008.1
2017-09-04T09:47:35.600Z,1008.1
2017-09-04T09:48:37.009Z,1008.1
2017-09-04T09:49:38.407Z,1008.1
2017-09-04T09:51:19.806Z,1008.1
2017-09-04T09:52:21.201Z,1008.1
2017-09-04T09:53:43.216Z,1008.1
2017-09-04T09:54:44.610Z,1008.1
2017-09-04T09:55:46.007Z,1008.1
2017-09-04T09:56:47.396Z,1008.1
2017-09-04T09:57:48.789Z,1008.1
2017-09-04T09:58:50.190Z,1008.1
2017-09-04T09:59:51.584Z,1008.1
2017-09-04T10:00:52.981Z,1008.0
2017-09-04T10:01:54.374Z,1008.0
2017-09-04T10:02:55.767Z,1008.1
2017-09-04T10:03:57.184Z,1008.0
2017-09-04T10:04:58.569Z,1008.1
2017-09-04T10:06:40.969Z,1008.1
2017-09-04T10:07:42.363Z,1008.1
2017-09-04T10:08:43.763Z,1008.1
2017-09-04T10:09:45.158Z,1008.0
2017-09-04T10:10:46.554Z,1008.0
2017-09-04T10:11:48.003Z,1008.0
2017-09-04T10:12:49.395Z,1008.1
2017-09-04T10:13:50.792Z,1008.1
2017-09-04T10:14:52.188Z,1008.1
2017-09-04T10:15:53.579Z,1007.8
2017-09-04T10:16:54.975Z,1007.7
2017-09-04T10:17:56.373Z,1007.7
2017-09-04T10:18:57.777Z,1007.8
2017-09-04T10:19:59.171Z,1007.8
2017-09-04T10:21:00.568Z,1007.8
2017-09-04T10:22:01.962Z,1007.7
2017-09-04T10:23:03.358Z,1007.7
2017-09-04T10:24:04.752Z,1007.7
2017-09-04T10:25:06.144Z,1007.7
2017-09-04T10:26:07.539Z,1007.6
2017-09-04T10:27:08.953Z,1007.6
2017-09-04T10:28:10.339Z,1007.6
2017-09-04T10:29:11.743Z,1007.7
2017-09-04T10:30:13.137Z,1007.7
2017-09-04T10:31:14.529Z,1007.7
2017-09-04T10:32:15.933Z,1007.7
2017-09-04T10:33:17.335Z,1007.8
2017-09-04T10:34:18.730Z,1007.5
2017-09-04T10:35:20.132Z,1007.5
2017-09-04T10:36:21.535Z,1007.9
2017-09-04T10:37:22.931Z,1007.8
2017-09-04T10:38:24.322Z,1007.9
2017-09-04T10:39:25.722Z,1007.9
2017-09-04T10:40:27.115Z,1007.9
2017-09-04T10:41:28.524Z,1007.9
2017-09-04T10:42:29.914Z,1007.9
2017-09-04T10:43:31.308Z,1007.9
2017-09-04T10:44:32.710Z,1007.9
2017-09-04T10:45:34.096Z,1007.9
2017-09-04T10:46:35.504Z,1007.9
2017-09-04T10:47:36.900Z,1007.8
2017-09-04T10:48:38.297Z,1007.8
2017-09-04T10:49:39.692Z,1007.8
2017-09-04T10:50:41.105Z,1007.8
2017-09-04T10:51:42.503Z,1007.8
2017-09-04T10:52:43.902Z,1007.8
2017-09-04T10:53:45.302Z,1007.8
2017-09-04T10:55:26.693Z,1007.7
2017-09-04T10:56:28.088Z,1007.7
2017-09-04T10:57:29.482Z,1007.8
2017-09-04T10:58:30.884Z,1007.7
2017-09-04T10:59:32.282Z,1007.7
2017-09-04T11:00:33.678Z,1007.5
2017-09-04T11:01:35.078Z,1007.5
2017-09-04T11:02:36.479Z,1007.4
2017-09-04T11:03:37.871Z,1007.4
2017-09-04T11:04:39.277Z,1007.5
2017-09-04T11:05:40.673Z,1007.7
2017-09-04T11:06:42.073Z,1007.7
2017-09-04T11:07:43.467Z,1007.7
2017-09-04T11:08:44.868Z,1007.8
2017-09-04T11:09:46.264Z,1007.8
2017-09-04T11:11:28.651Z,1007.5
2017-09-04T11:12:30.049Z,1007.7
2017-09-04T11:13:31.439Z,1007.6
2017-09-04T11:14:32.840Z,1007.5
2017-09-04T11:15:34.235Z,1007.5
2017-09-04T11:16:35.627Z,1007.5
2017-09-04T11:17:37.034Z,1007.8
2017-09-04T11:18:38.440Z,1007.8
2017-09-04T11:19:39.833Z,1007.8
2017-09-04T11:20:41.237Z,1007.9
2017-09-04T11:21:42.629Z,1007.9
2017-09-04T11:22:44.030Z,1007.9
2017-09-04T11:23:45.419Z,1007.9
2017-09-04T11:24:46.817Z,1007.8
2017-09-04T11:25:48.226Z,1007.8
2017-09-04T11:26:49.619Z,1007.8
2017-09-04T11:27:51.014Z,1007.7
2017-09-04T11:28:52.410Z,1007.7
2017-09-04T11:29:53.806Z,1007.7
2017-09-04T11:30:55.199Z,1007.7
2017-09-04T11:31:56.596Z,1007.7
2017-09-04T11:32:57.990Z,1007.7
2017-09-04T11:33:59.384Z,1007.7
2017-09-04T11:35:00.780Z,1007.7
2017-09-04T11:36:02.178Z,1007.7
2017-09-04T11:37:03.579Z,1007.6
2017-09-04T11:38:04.976Z,1007.6
2017-09-04T11:39:06.382Z,1007.6
2017-09-04T11:40:07.780Z,1007.6
2017-09-04T11:41:09.178Z,1007.7
2017-09-04T11:42:10.578Z,1007.6
2017-09-04T11:43:11.980Z,1007.6
2017-09-04T11:44:13.379Z,1007.6
2017-09-04T11:45:14.782Z,1007.6
2017-09-04T11:46:16.183Z,1007.6
2017-09-04T11:47:17.579Z,1007.6
2017-09-04T11:48:18.973Z,1007.6
2017-09-04T11:49:20.370Z,1007.6
2017-09-04T11:50:21.771Z,1007.6
2017-09-04T11:51:23.172Z,1007.6
2017-09-04T11:52:24.569Z,1007.6
2017-09-04T11:53:25.972Z,1007.6
2017-09-04T11:54:27.372Z,1007.6
2017-09-04T11:55:28.771Z,1007.6
2017-09-04T11:56:30.174Z,1007.6
2017-09-04T11:57:31.600Z,1007.7
2017-09-04T11:58:32.991Z,1007.7
2017-09-04T11:59:34.390Z,1007.7
2017-09-04T12:00:35.815Z,1007.8
2017-09-04T12:01:37.263Z,1007.7
2017-09-04T12:02:38.676Z,1007.8
2017-09-04T12:03:40.066Z,1007.8
2017-09-04T12:04:41.478Z,1007.8
2017-09-04T12:05:42.883Z,1007.7
2017-09-04T12:06:44.272Z,1007.7
2017-09-04T12:07:45.680Z,1007.8
2017-09-04T12:08:47.091Z,1007.8
2017-09-04T12:09:48.497Z,1007.8
2017-09-04T12:10:49.897Z,1007.7
2017-09-04T12:11:51.418Z,1007.8
2017-09-04T12:12:52.822Z,1007.8
2017-09-04T12:13:54.233Z,1007.8
2017-09-04T12:14:55.628Z,1007.8
2017-09-04T12:15:57.113Z,1007.8
2017-09-04T12:16:58.492Z,1007.6
2017-09-04T12:17:59.900Z,1007.5
2017-09-04T12:19:01.369Z,1007.6
2017-09-04T12:20:02.768Z,1007.8
2017-09-04T12:21:04.166Z,1007.7
2017-09-04T12:22:05.564Z,1007.7
2017-09-04T12:23:06.960Z,1007.8
2017-09-04T12:24:08.364Z,1007.8
2017-09-04T12:25:09.761Z,1007.8
2017-09-04T12:26:11.174Z,1007.7
2017-09-04T12:27:12.570Z,1007.8
2017-09-04T12:28:13.980Z,1007.8
2017-09-04T12:29:15.381Z,1007.8
2017-09-04T12:30:16.836Z,1007.7
2017-09-04T12:31:18.287Z,1007.7
2017-09-04T12:33:00.690Z,1007.7
2017-09-04T12:34:02.088Z,1007.7
2017-09-04T12:35:03.494Z,1007.7
2017-09-04T12:36:04.890Z,1007.7
2017-09-04T12:37:06.288Z,1007.7
2017-09-04T12:38:07.676Z,1007.5
2017-09-04T12:39:09.089Z,1007.5
2017-09-04T12:40:10.492Z,1007.6
2017-09-04T12:41:11.921Z,1007.6
2017-09-04T12:42:13.319Z,1007.7
2017-09-04T12:43:14.720Z,1007.7
2017-09-04T12:44:16.120Z,1007.7
2017-09-04T12:45:17.522Z,1007.7
2017-09-04T12:46:18.924Z,1007.6
2017-09-04T12:47:20.324Z,1007.7
2017-09-04T12:48:21.719Z,1007.7
2017-09-04T12:49:23.117Z,1007.7
2017-09-04T12:50:24.515Z,1007.7
2017-09-04T12:51:25.906Z,1007.6
2017-09-04T12:52:27.310Z,1007.6
2017-09-04T12:53:28.708Z,1007.7
2017-09-04T12:54:30.109Z,1007.7
2017-09-04T12:55:31.511Z,1007.6
2017-09-04T12:56:32.911Z,1007.7
2017-09-04T12:57:34.307Z,1007.6
2017-09-04T12:58:35.710Z,1007.6
2017-09-04T12:59:37.123Z,1007.6
2017-09-04T13:00:38.525Z,1007.6